Time,TemperatureF,DewpointF,PressureIn,WindDirection,WindDirectionDegrees,WindSpeedMPH,WindSpeedGustMPH,Humidity,HourlyPrecipIn,Conditions,Clouds,dailyrainin,SolarRadiationWatts/m^2,SoftwareType,DateUTC
2013-09-26 00:08:00,40.5,38.0,31.38,North,5,2.0,10.0,91,0.00,,,0.00,0,weatherlink.com 1.10,2013-09-26 06:08:00,
2013-09-26 00:23:00,40.2,38.0,31.38,NNW,346,6.0,10.0,91,0.00,,,0.00,0,weatherlink.com 1.10,2013-09-26 06:23:00,
2013-09-26 00:38:00,40.0,38.0,31.39,NNE,19,6.0,11.0,92,0.00,,,0.00,0,weatherlink.com 1.10,2013-09-26 06:38:00,
2013-09-26 00:53:00,39.8,38.0,31.39,North,9,2.0,7.0,92,0.01,,,0.01,0,weatherlink.com 1.10,2013-09-26 06:53:00,
2013-09-26 01:08:00,39.9,38.0,31.39,NNE,23,2.0,9.0,91,0.01,,,0.01,0,weatherlink.com 1.10,2013-09-26 07:08:00,
2013-09-26 01:23:00,40.0,38.0,31.39,NNE,22,3.0,7.0,91,0.01,,,0.01,0,weatherlink.com 1.10,2013-09-26 07:23:00,
2013-09-26 01:38:00,40.2,37.0,31.40,North,350,8.0,17.0,89,0.01,,,0.01,0,weatherlink.com 1.10,2013-09-26 07:38:00,
2013-09-26 01:53:00,40.2,37.0,31.41,NNE,30,2.0,10.0,89,0.00,,,0.01,0,weatherlink.com 1.10,2013-09-26 07:53:00,
2013-09-26 02:08:00,39.8,37.0,31.42,NE,34,3.0,6.0,90,0.00,,,0.01,0,weatherlink.com 1.10,2013-09-26 08:08:00,
2013-09-26 02:23:00,39.5,37.0,31.42,North,5,3.0,10.0,91,0.01,,,0.02,0,weatherlink.com 1.10,2013-09-26 08:23:00,
2013-09-26 02:38:00,39.3,37.0,31.43,NNE,29,2.0,7.0,92,0.01,,,0.02,0,weatherlink.com 1.10,2013-09-26 08:38:00,
2013-09-26 02:53:00,39.1,37.0,31.42,North,5,3.0,8.0,92,0.02,,,0.03,0,weatherlink.com 1.10,2013-09-26 08:53:00,
2013-09-26 03:08:00,38.7,37.0,31.43,North,5,1.0,5.0,92,0.03,,,0.04,0,weatherlink.com 1.10,2013-09-26 09:08:00,
2013-09-26 03:23:00,38.4,37.0,31.43,North,5,0.0,2.0,93,0.02,,,0.04,0,weatherlink.com 1.10,2013-09-26 09:23:00,
2013-09-26 03:38:00,38.3,37.0,31.44,North,5,0.0,5.0,93,0.02,,,0.04,0,weatherlink.com 1.10,2013-09-26 09:38:00,
2013-09-26 03:53:00,38.2,36.0,31.45,North,355,3.0,5.0,93,0.02,,,0.05,0,weatherlink.com 1.10,2013-09-26 09:53:00,
2013-09-26 04:08:00,38.0,36.0,31.45,North,5,2.0,7.0,93,0.01,,,0.05,0,weatherlink.com 1.10,2013-09-26 10:08:00,
2013-09-26 04:23:00,37.9,36.0,31.46,NNE,16,3.0,7.0,93,0.01,,,0.05,0,weatherlink.com 1.10,2013-09-26 10:23:00,
2013-09-26 04:38:00,37.8,36.0,31.46,North,350,1.0,3.0,93,0.01,,,0.05,0,weatherlink.com 1.10,2013-09-26 10:38:00,
2013-09-26 04:53:00,37.9,36.0,31.46,NNW,331,1.0,3.0,93,0.00,,,0.05,0,weatherlink.com 1.10,2013-09-26 10:53:00,
2013-09-26 05:09:00,37.9,36.0,31.46,NNW,331,0.0,2.0,94,0.00,,,0.05,0,weatherlink.com 1.10,2013-09-26 11:09:00,
2013-09-26 05:24:00,38.0,37.0,31.47,NNW,331,0.0,2.0,94,0.00,,,0.05,0,weatherlink.com 1.10,2013-09-26 11:24:00,
2013-09-26 05:39:00,37.8,36.0,31.47,North,10,3.0,6.0,94,0.00,,,0.05,0,weatherlink.com 1.10,2013-09-26 11:39:00,
2013-09-26 05:54:00,37.7,35.0,31.48,North,355,8.0,9.0,88,0.00,,,0.05,0,weatherlink.com 1.10,2013-09-26 11:54:00,
2013-09-26 06:09:00,37.6,34.0,31.48,North,9,1.0,7.0,87,0.00,,,0.05,0,weatherlink.com 1.10,2013-09-26 12:09:00,
2013-09-26 06:24:00,37.3,34.0,31.49,North,360,0.0,5.0,89,0.00,,,0.05,0,weatherlink.com 1.10,2013-09-26 12:24:00,
2013-09-26 06:39:00,37.4,34.0,31.50,North,360,0.0,2.0,86,0.00,,,0.05,0,weatherlink.com 1.10,2013-09-26 12:39:00,
2013-09-26 06:54:00,38.9,32.0,31.51,North,10,7.0,12.0,77,0.00,,,0.05,0,weatherlink.com 1.10,2013-09-26 12:54:00,
2013-09-26 07:09:00,38.9,32.0,31.52,NE,34,2.0,11.0,75,0.00,,,0.05,0,weatherlink.com 1.10,2013-09-26 13:09:00,
2013-09-26 07:24:00,38.5,32.0,31.52,NE,53,4.0,12.0,77,0.00,,,0.05,0,weatherlink.com 1.10,2013-09-26 13:24:00,
2013-09-26 07:39:00,38.8,31.0,31.52,NNE,31,1.0,9.0,74,0.00,,,0.05,0,weatherlink.com 1.10,2013-09-26 13:39:00,
2013-09-26 07:54:00,39.1,31.0,31.52,ENE,78,0.0,8.0,73,0.00,,,0.05,12,weatherlink.com 1.10,2013-09-26 13:54:00,
2013-09-26 08:09:00,39.1,31.0,31.53,NE,43,0.0,5.0,74,0.00,,,0.05,21,weatherlink.com 1.10,2013-09-26 14:09:00,
2013-09-26 08:24:00,38.7,32.0,31.53,NE,43,0.0,2.0,77,0.00,,,0.05,39,weatherlink.com 1.10,2013-09-26 14:24:00,
2013-09-26 08:39:00,38.7,33.0,31.53,NE,43,0.0,3.0,79,0.00,,,0.05,49,weatherlink.com 1.10,2013-09-26 14:39:00,
2013-09-26 08:54:00,39.2,32.0,31.54,NE,43,0.0,2.0,76,0.00,,,0.05,63,weatherlink.com 1.10,2013-09-26 14:54:00,
2013-09-26 09:09:00,39.8,32.0,31.54,NE,43,0.0,2.0,74,0.00,,,0.05,95,weatherlink.com 1.10,2013-09-26 15:09:00,
2013-09-26 09:24:00,40.3,32.0,31.54,NE,43,0.0,0.0,73,0.00,,,0.05,90,weatherlink.com 1.10,2013-09-26 15:24:00,
2013-09-26 09:39:00,40.8,33.0,31.54,NE,43,0.0,0.0,73,0.00,,,0.05,130,weatherlink.com 1.10,2013-09-26 15:39:00,
2013-09-26 09:54:00,41.6,31.0,31.55,NE,43,2.0,2.0,67,0.00,,,0.05,237,weatherlink.com 1.10,2013-09-26 15:54:00,
2013-09-26 10:09:00,42.7,33.0,31.55,NNE,21,2.0,4.0,69,0.00,,,0.05,288,weatherlink.com 1.10,2013-09-26 16:09:00,
2013-09-26 10:24:00,42.1,38.0,31.55,West,260,3.0,6.0,85,0.00,,,0.05,188,weatherlink.com 1.10,2013-09-26 16:24:00,
2013-09-26 10:39:00,41.3,37.0,31.55,West,266,2.0,4.0,86,0.00,,,0.05,195,weatherlink.com 1.10,2013-09-26 16:39:00,
2013-09-26 10:54:00,41.2,36.0,31.55,West,266,0.0,2.0,80,0.00,,,0.05,223,weatherlink.com 1.10,2013-09-26 16:54:00,
2013-09-26 11:09:00,41.9,37.0,31.55,WNW,288,1.0,4.0,81,0.00,,,0.05,225,weatherlink.com 1.10,2013-09-26 17:09:00,
2013-09-26 11:24:00,42.1,34.0,31.55,WNW,290,0.0,4.0,74,0.00,,,0.05,243,weatherlink.com 1.10,2013-09-26 17:24:00,
2013-09-26 11:39:00,42.5,34.0,31.55,WNW,292,1.0,4.0,73,0.00,,,0.05,264,weatherlink.com 1.10,2013-09-26 17:39:00,
2013-09-26 11:54:00,42.8,35.0,31.55,NW,314,4.0,5.0,73,0.00,,,0.05,230,weatherlink.com 1.10,2013-09-26 17:54:00,
2013-09-26 12:09:00,43.1,36.0,31.55,NW,314,0.0,3.0,75,0.00,,,0.05,216,weatherlink.com 1.10,2013-09-26 18:09:00,
2013-09-26 12:25:00,43.4,35.0,31.55,NW,317,2.0,4.0,73,0.00,,,0.05,218,weatherlink.com 1.10,2013-09-26 18:25:00,
2013-09-26 12:40:00,43.6,35.0,31.55,NW,316,2.0,4.0,73,0.00,,,0.05,218,weatherlink.com 1.10,2013-09-26 18:40:00,
2013-09-26 12:55:00,43.8,36.0,31.55,NW,310,3.0,6.0,73,0.00,,,0.05,251,weatherlink.com 1.10,2013-09-26 18:55:00,
2013-09-26 13:10:00,44.4,36.0,31.55,NW,309,1.0,5.0,73,0.00,,,0.05,248,weatherlink.com 1.10,2013-09-26 19:10:00,
2013-09-26 13:25:00,44.7,35.0,31.55,WSW,253,3.0,5.0,69,0.00,,,0.05,770,weatherlink.com 1.10,2013-09-26 19:25:00,
2013-09-26 13:40:00,45.6,36.0,31.55,SW,227,4.0,6.0,69,0.00,,,0.05,443,weatherlink.com 1.10,2013-09-26 19:40:00,
2013-09-26 13:55:00,45.9,35.0,31.55,NW,304,5.0,11.0,67,0.00,,,0.05,241,weatherlink.com 1.10,2013-09-26 19:55:00,
2013-09-26 14:10:00,45.5,34.0,31.55,WSW,248,3.0,7.0,65,0.00,,,0.05,246,weatherlink.com 1.10,2013-09-26 20:10:00,
2013-09-26 14:25:00,45.3,34.0,31.55,West,272,3.0,5.0,65,0.00,,,0.05,329,weatherlink.com 1.10,2013-09-26 20:25:00,
2013-09-26 14:40:00,45.4,34.0,31.55,WNW,293,5.0,7.0,65,0.00,,,0.05,202,weatherlink.com 1.10,2013-09-26 20:40:00,
2013-09-26 14:55:00,45.3,34.0,31.55,NW,319,2.0,8.0,65,0.00,,,0.05,116,weatherlink.com 1.10,2013-09-26 20:55:00,
2013-09-26 15:10:00,44.4,33.0,31.55,North,355,11.0,11.0,65,0.00,,,0.05,91,weatherlink.com 1.10,2013-09-26 21:10:00,
2013-09-26 15:25:00,42.4,34.0,31.56,North,9,11.0,11.0,72,0.00,,,0.05,47,weatherlink.com 1.10,2013-09-26 21:25:00,
2013-09-26 15:40:00,41.0,35.0,31.57,NNE,15,2.0,8.0,80,0.00,,,0.05,53,weatherlink.com 1.10,2013-09-26 21:40:00,
2013-09-26 15:55:00,40.7,34.0,31.57,North,9,4.0,8.0,78,0.00,,,0.05,62,weatherlink.com 1.10,2013-09-26 21:55:00,
2013-09-26 16:10:00,40.4,32.0,31.57,East,101,5.0,11.0,73,0.00,,,0.05,54,weatherlink.com 1.10,2013-09-26 22:10:00,
2013-09-26 16:25:00,39.9,33.0,31.57,ESE,115,8.0,16.0,76,0.00,,,0.05,53,weatherlink.com 1.10,2013-09-26 22:25:00,
2013-09-26 16:40:00,40.5,32.0,31.58,ENE,73,8.0,15.0,73,0.00,,,0.05,53,weatherlink.com 1.10,2013-09-26 22:40:00,
2013-09-26 16:55:00,40.7,33.0,31.58,ESE,112,8.0,13.0,74,0.00,,,0.05,70,weatherlink.com 1.10,2013-09-26 22:55:00,
2013-09-26 17:10:00,41.3,33.0,31.58,East,92,6.0,13.0,72,0.00,,,0.05,88,weatherlink.com 1.10,2013-09-26 23:10:00,
2013-09-26 17:40:00,42.4,33.0,31.59,East,94,0.0,5.0,70,0.00,,,0.05,63,weatherlink.com 1.10,2013-09-26 23:40:00,
2013-09-26 17:55:00,42.3,34.0,31.59,NW,311,0.0,6.0,73,0.00,,,0.05,58,weatherlink.com 1.10,2013-09-26 23:55:00,
2013-09-26 18:10:00,41.9,34.0,31.59,WNW,297,0.0,3.0,74,0.00,,,0.05,58,weatherlink.com 1.10,2013-09-27 00:10:00,
2013-09-26 18:25:00,41.7,34.0,31.60,WNW,297,0.0,2.0,73,0.00,,,0.05,51,weatherlink.com 1.10,2013-09-27 00:25:00,
2013-09-26 18:40:00,41.8,35.0,31.60,WNW,297,0.0,1.0,77,0.00,,,0.05,39,weatherlink.com 1.10,2013-09-27 00:40:00,
2013-09-26 18:55:00,41.6,34.0,31.60,WNW,297,0.0,1.0,75,0.00,,,0.05,40,weatherlink.com 1.10,2013-09-27 00:55:00,
2013-09-26 19:10:00,41.4,34.0,31.61,WNW,297,0.0,0.0,76,0.00,,,0.05,19,weatherlink.com 1.10,2013-09-27 01:10:00,
2013-09-26 19:25:00,41.3,33.0,31.61,NW,325,1.0,2.0,72,0.00,,,0.05,0,weatherlink.com 1.10,2013-09-27 01:25:00,
2013-09-26 19:40:00,41.6,32.0,31.61,North,5,1.0,3.0,69,0.00,,,0.05,0,weatherlink.com 1.10,2013-09-27 01:40:00,
2013-09-26 19:55:00,41.8,32.0,31.61,NNE,25,0.0,4.0,67,0.00,,,0.05,0,weatherlink.com 1.10,2013-09-27 01:55:00,
2013-09-26 20:10:00,41.5,32.0,31.61,NNE,25,1.0,3.0,68,0.00,,,0.05,0,weatherlink.com 1.10,2013-09-27 02:10:00,
2013-09-26 20:25:00,41.3,31.0,31.61,NNE,25,0.0,2.0,68,0.00,,,0.05,0,weatherlink.com 1.10,2013-09-27 02:25:00,
2013-09-26 20:40:00,41.3,31.0,31.62,NNE,25,0.0,2.0,68,0.00,,,0.05,0,weatherlink.com 1.10,2013-09-27 02:40:00,
2013-09-26 20:55:00,41.4,32.0,31.62,NNE,25,1.0,2.0,69,0.00,,,0.05,0,weatherlink.com 1.10,2013-09-27 02:55:00,
2013-09-26 21:10:00,41.3,32.0,31.62,NNE,25,0.0,0.0,69,0.00,,,0.05,0,weatherlink.com 1.10,2013-09-27 03:10:00,
2013-09-26 21:25:00,41.2,32.0,31.62,NNE,25,0.0,0.0,69,0.00,,,0.05,0,weatherlink.com 1.10,2013-09-27 03:25:00,
2013-09-26 21:40:00,41.0,32.0,31.62,NNE,25,0.0,0.0,69,0.00,,,0.05,0,weatherlink.com 1.10,2013-09-27 03:40:00,
2013-09-26 21:55:00,40.9,31.0,31.62,NNE,25,0.0,0.0,69,0.00,,,0.05,0,weatherlink.com 1.10,2013-09-27 03:55:00,
2013-09-26 22:10:00,40.4,32.0,31.62,NNE,25,0.0,0.0,71,0.00,,,0.05,0,weatherlink.com 1.10,2013-09-27 04:10:00,
2013-09-26 22:25:00,38.7,32.0,31.62,North,5,3.0,5.0,76,0.00,,,0.05,0,weatherlink.com 1.10,2013-09-27 04:25:00,
2013-09-26 22:40:00,37.0,31.0,31.62,North,5,2.0,4.0,80,0.00,,,0.05,0,weatherlink.com 1.10,2013-09-27 04:40:00,
2013-09-26 22:55:00,36.7,31.0,31.61,North,360,2.0,6.0,80,0.00,,,0.05,0,weatherlink.com 1.10,2013-09-27 04:55:00,
2013-09-26 23:10:00,37.3,31.0,31.61,North,360,0.0,1.0,79,0.00,,,0.05,0,weatherlink.com 1.10,2013-09-27 05:10:00,
2013-09-26 23:25:00,38.1,31.0,31.62,North,360,0.0,3.0,76,0.00,,,0.05,0,weatherlink.com 1.10,2013-09-27 05:25:00,
2013-09-26 23:40:00,37.9,31.0,31.62,North,360,2.0,3.0,77,0.00,,,0.05,0,weatherlink.com 1.10,2013-09-27 05:40:00,
2013-09-26 23:55:00,37.8,31.0,31.62,North,5,2.0,3.0,76,0.00,,,0.05,0,weatherlink.com 1.10,2013-09-27 05:55:00,